Time;durP1;ratioP1;P1;durP2;ratioP2;P2;SDS_P1;SDS_P2;PMS_P1;PMS_P2;Temp;Humidity;BMP_temperature;BMP_pressure;BME280_temperature;BME280_humidity;BME280_pressure;Samples;Min_cycle;Max_cycle;Signal;HPM_P1;HPM_P2
2020/12/08 00:00:45;;;;;;;8.38;6.05;;;;;;;;;;5054270;28;20064;-91
2020/12/08 00:03:11;;;;;;;10.15;6.10;;;;;;;;;;5054165;28;20021;-93
2020/12/08 00:05:37;;;;;;;9.52;6.13;;;;;;;;;;5053646;28;20037;-92
2020/12/08 00:08:04;;;;;;;9.82;5.75;;;;;;;;;;5054774;28;20393;-92
2020/12/08 00:10:30;;;;;;;8.55;5.47;;;;;;;;;;5054921;28;20032;-93
2020/12/08 00:12:56;;;;;;;10.05;5.70;;;;;;;;;;5057147;28;20037;-93
2020/12/08 00:15:22;;;;;;;9.02;5.50;;;;;;;;;;5058613;28;20036;-94
2020/12/08 00:17:48;;;;;;;8.40;5.20;;;;;;;;;;5056790;28;20055;-92
2020/12/08 00:20:21;;;;;;;7.15;4.90;;;;;;;;;;5057352;28;20021;-92
2020/12/08 00:22:47;;;;;;;7.63;5.15;;;;;;;;;;5055687;28;20029;-93
2020/12/08 00:25:14;;;;;;;6.75;4.45;;;;;;;;;;5054887;28;20458;-93
2020/12/08 00:27:40;;;;;;;5.38;3.88;;;;;;;;;;5054232;28;20040;-93
2020/12/08 00:30:08;;;;;;;4.85;3.00;;;;;;;;;;5054357;28;20021;-90
2020/12/08 00:32:36;;;;;;;5.70;3.80;;;;;;;;;;5054903;28;20100;-91
2020/12/08 00:35:02;;;;;;;4.60;3.40;;;;;;;;;;5057299;28;20024;-94
2020/12/08 00:37:28;;;;;;;5.82;4.32;;;;;;;;;;5063685;28;20025;-92
2020/12/08 00:39:54;;;;;;;6.90;4.18;;;;;;;;;;5067163;28;20021;-93
2020/12/08 00:42:20;;;;;;;8.32;4.68;;;;;;;;;;5063694;28;20021;-89
2020/12/08 00:44:46;;;;;;;6.15;4.03;;;;;;;;;;5068413;28;20028;-93
2020/12/08 00:47:12;;;;;;;7.93;4.18;;;;;;;;;;5071508;28;20016;-91
2020/12/08 00:49:38;;;;;;;5.35;4.10;;;;;;;;;;5075497;28;20024;-92
2020/12/08 00:52:04;;;;;;;6.90;4.00;;;;;;;;;;5075264;28;20028;-94
2020/12/08 00:54:30;;;;;;;5.35;3.95;;;;;;;;;;5074304;28;20032;-93
2020/12/08 00:56:56;;;;;;;5.45;3.95;;;;;;;;;;5074763;28;20027;-92
2020/12/08 00:59:23;;;;;;;5.68;4.10;;;;;;;;;;5077452;28;20057;-82
2020/12/08 01:01:49;;;;;;;5.90;4.32;;;;;;;;;;5075168;28;20036;-90
2020/12/08 01:04:15;;;;;;;7.93;4.30;;;;;;;;;;5077805;28;20035;-84
2020/12/08 01:06:41;;;;;;;7.25;3.85;;;;;;;;;;5078656;28;20021;-84
2020/12/08 01:09:07;;;;;;;7.00;4.60;;;;;;;;;;5078819;28;20036;-78
2020/12/08 01:11:44;;;;;;;6.10;4.00;;;;;;;;;;5077702;28;20037;-80
2020/12/08 01:14:14;;;;;;;6.43;4.15;;;;;;;;;;5078565;28;20021;-79
2020/12/08 01:16:40;;;;;;;7.25;4.80;;;;;;;;;;5070316;28;20017;-88
2020/12/08 01:19:07;;;;;;;5.97;4.13;;;;;;;;;;5077865;28;20010;-76
2020/12/08 01:21:33;;;;;;;7.30;4.55;;;;;;;;;;5078408;28;20024;-84
2020/12/08 01:23:59;;;;;;;7.75;4.90;;;;;;;;;;5077066;28;20017;-86
2020/12/08 01:26:26;;;;;;;8.20;4.85;;;;;;;;;;5077860;28;20025;-90
2020/12/08 01:28:52;;;;;;;7.85;5.25;;;;;;;;;;5077063;28;20017;-93
2020/12/08 01:31:19;;;;;;;7.18;5.00;;;;;;;;;;5076951;28;20025;-90
2020/12/08 01:33:45;;;;;;;7.60;5.38;;;;;;;;;;5078529;28;20005;-85
2020/12/08 01:36:11;;;;;;;9.45;5.22;;;;;;;;;;5078677;28;20029;-76
2020/12/08 01:38:37;;;;;;;9.40;6.00;;;;;;;;;;5078720;28;20052;-75
2020/12/08 01:41:03;;;;;;;8.18;5.18;;;;;;;;;;5099116;22;20066;-73
2020/12/08 01:43:29;;;;;;;9.15;6.00;;;;;;;;;;5078152;28;20009;-74
2020/12/08 01:45:55;;;;;;;10.20;6.93;;;;;;;;;;5078414;28;20017;-78
2020/12/08 01:48:22;;;;;;;9.55;6.47;;;;;;;;;;5078622;28;20104;-73
2020/12/08 01:50:48;;;;;;;9.50;6.15;;;;;;;;;;5078662;28;20029;-81
2020/12/08 01:53:15;;;;;;;9.98;6.45;;;;;;;;;;5078906;28;20300;-80
2020/12/08 01:55:42;;;;;;;12.10;7.07;;;;;;;;;;5078669;28;20017;-77
2020/12/08 01:58:15;;;;;;;8.43;6.07;;;;;;;;;;5078762;28;20020;-76
2020/12/08 02:00:41;;;;;;;7.10;5.05;;;;;;;;;;5078269;28;20037;-78
2020/12/08 02:03:07;;;;;;;6.97;5.07;;;;;;;;;;5078187;28;20073;-76
2020/12/08 02:05:33;;;;;;;8.32;5.05;;;;;;;;;;5080272;28;20013;-76
2020/12/08 02:07:59;;;;;;;5.93;4.32;;;;;;;;;;5082216;28;20159;-75
2020/12/08 02:10:25;;;;;;;6.53;4.80;;;;;;;;;;5082342;28;20023;-77
2020/12/08 02:12:51;;;;;;;6.63;4.50;;;;;;;;;;5082056;28;20071;-77
2020/12/08 02:15:17;;;;;;;6.57;4.53;;;;;;;;;;5082202;28;20055;-79
2020/12/08 02:17:43;;;;;;;6.03;4.50;;;;;;;;;;5081409;28;20005;-77
2020/12/08 02:20:10;;;;;;;6.70;4.43;;;;;;;;;;5081753;28;20013;-77
2020/12/08 02:22:36;;;;;;;7.43;4.45;;;;;;;;;;5081976;28;20044;-78
2020/12/08 02:25:04;;;;;;;6.43;4.50;;;;;;;;;;5082112;28;20005;-75
2020/12/08 02:27:30;;;;;;;7.47;5.03;;;;;;;;;;5082038;28;20027;-78
2020/12/08 02:29:56;;;;;;;6.25;4.97;;;;;;;;;;5082005;28;20033;-74
2020/12/08 02:32:22;;;;;;;6.65;4.43;;;;;;;;;;5081486;28;20021;-88
2020/12/08 02:34:48;;;;;;;7.50;5.03;;;;;;;;;;5081001;28;20028;-90
2020/12/08 02:37:14;;;;;;;6.80;4.63;;;;;;;;;;5106353;22;20067;-75
2020/12/08 02:39:40;;;;;;;9.13;4.78;;;;;;;;;;5084645;28;20016;-77
2020/12/08 02:42:06;;;;;;;6.50;4.60;;;;;;;;;;5101825;28;20005;-74
2020/12/08 02:44:32;;;;;;;5.35;4.32;;;;;;;;;;5101844;28;20025;-78
2020/12/08 02:46:58;;;;;;;7.22;4.47;;;;;;;;;;5084484;28;20029;-75
2020/12/08 02:49:24;;;;;;;7.47;4.72;;;;;;;;;;5084517;28;20036;-73
2020/12/08 02:51:55;;;;;;;6.30;4.57;;;;;;;;;;5101592;28;20008;-81
2020/12/08 02:54:21;;;;;;;6.55;4.57;;;;;;;;;;5101584;28;20065;-77
2020/12/08 02:56:47;;;;;;;7.60;5.00;;;;;;;;;;5101267;28;20012;-88
2020/12/08 02:59:13;;;;;;;8.98;5.35;;;;;;;;;;5100885;28;20013;-80
2020/12/08 03:01:39;;;;;;;8.85;5.55;;;;;;;;;;5100453;28;20035;-85
2020/12/08 03:04:05;;;;;;;7.38;5.30;;;;;;;;;;5098647;28;20029;-75
2020/12/08 03:06:32;;;;;;;6.53;4.80;;;;;;;;;;5096565;28;20204;-89
2020/12/08 03:08:58;;;;;;;8.07;5.57;;;;;;;;;;5100945;28;20012;-91
2020/12/08 03:11:33;;;;;;;7.90;5.22;;;;;;;;;;5120015;22;20055;-92
2020/12/08 03:13:59;;;;;;;8.02;5.00;;;;;;;;;;5109031;28;20069;-94
2020/12/08 03:16:25;;;;;;;7.97;5.40;;;;;;;;;;5119454;28;20026;-90
2020/12/08 03:18:51;;;;;;;9.63;6.22;;;;;;;;;;5119843;28;20042;-92
2020/12/08 03:21:17;;;;;;;9.98;6.00;;;;;;;;;;5109534;28;20032;-93
2020/12/08 03:23:43;;;;;;;8.63;6.20;;;;;;;;;;5111399;28;20024;-89
2020/12/08 03:26:09;;;;;;;9.55;5.90;;;;;;;;;;5112477;28;20032;-93
2020/12/08 03:28:35;;;;;;;11.50;6.43;;;;;;;;;;5112434;28;20036;-74
2020/12/08 03:31:01;;;;;;;8.73;6.30;;;;;;;;;;5111879;28;20024;-92
2020/12/08 03:33:27;;;;;;;9.23;6.13;;;;;;;;;;5112814;28;20079;-94
2020/12/08 03:35:53;;;;;;;9.77;6.30;;;;;;;;;;5114828;28;20020;-88
2020/12/08 03:38:20;;;;;;;13.63;6.85;;;;;;;;;;5113028;28;20024;-92
2020/12/08 03:40:46;;;;;;;9.77;6.60;;;;;;;;;;5090819;28;20025;-94
2020/12/08 03:43:12;;;;;;;9.77;6.40;;;;;;;;;;5089167;28;20384;-93
2020/12/08 03:45:38;;;;;;;9.75;6.47;;;;;;;;;;5090315;28;20021;-91
2020/12/08 03:48:04;;;;;;;10.70;6.30;;;;;;;;;;5091133;28;20067;-88
2020/12/08 03:50:30;;;;;;;11.40;7.70;;;;;;;;;;5093489;28;20021;-76
2020/12/08 03:52:57;;;;;;;10.15;6.72;;;;;;;;;;5096096;28;20012;-90
2020/12/08 03:55:23;;;;;;;11.18;6.88;;;;;;;;;;5096576;28;20021;-91
2020/12/08 03:57:49;;;;;;;10.70;6.72;;;;;;;;;;5095655;28;20025;-90
2020/12/08 04:00:15;;;;;;;10.13;6.63;;;;;;;;;;5094443;28;20005;-77
2020/12/08 04:02:43;;;;;;;9.18;6.70;;;;;;;;;;5097196;28;20487;-73
2020/12/08 04:05:10;;;;;;;8.95;6.50;;;;;;;;;;5098094;28;20027;-93
2020/12/08 04:07:36;;;;;;;8.90;5.53;;;;;;;;;;5111495;28;20054;-79
2020/12/08 04:10:02;;;;;;;7.50;5.35;;;;;;;;;;5114589;28;20039;-94
2020/12/08 04:12:28;;;;;;;7.47;4.80;;;;;;;;;;5103627;28;20031;-80
2020/12/08 04:14:54;;;;;;;7.95;5.32;;;;;;;;;;5117592;28;20065;-88
2020/12/08 04:17:20;;;;;;;7.90;4.97;;;;;;;;;;5110544;28;20011;-85
2020/12/08 04:19:46;;;;;;;6.45;4.90;;;;;;;;;;5096520;28;20534;-88
2020/12/08 04:22:12;;;;;;;6.50;4.30;;;;;;;;;;5093587;28;20026;-88
2020/12/08 04:24:38;;;;;;;7.25;4.38;;;;;;;;;;5093499;28;20024;-87
2020/12/08 04:27:05;;;;;;;5.70;4.63;;;;;;;;;;5082422;28;20056;-90
2020/12/08 04:29:31;;;;;;;7.28;4.63;;;;;;;;;;5073405;28;20020;-90
2020/12/08 04:31:57;;;;;;;7.55;4.53;;;;;;;;;;5077246;28;20154;-88
2020/12/08 04:34:23;;;;;;;6.38;4.50;;;;;;;;;;5075743;28;20380;-83
2020/12/08 04:36:49;;;;;;;7.70;4.80;;;;;;;;;;5076356;28;20613;-82
2020/12/08 04:39:15;;;;;;;7.55;4.60;;;;;;;;;;5093915;28;20016;-82
2020/12/08 04:41:41;;;;;;;7.20;5.00;;;;;;;;;;5092635;28;20039;-85
2020/12/08 04:44:09;;;;;;;6.65;4.63;;;;;;;;;;5093003;28;20022;-89
2020/12/08 04:46:36;;;;;;;8.00;4.68;;;;;;;;;;5093301;28;20026;-92
2020/12/08 04:49:02;;;;;;;6.13;4.68;;;;;;;;;;5094914;28;20105;-91
2020/12/08 04:51:28;;;;;;;9.65;5.10;;;;;;;;;;5093158;28;20046;-90
2020/12/08 04:53:54;;;;;;;6.65;4.28;;;;;;;;;;5091945;28;20645;-86
2020/12/08 04:56:20;;;;;;;8.35;5.40;;;;;;;;;;5093204;28;20103;-88
2020/12/08 04:58:47;;;;;;;7.72;5.38;;;;;;;;;;5072802;28;20086;-90
2020/12/08 05:01:26;;;;;;;7.93;5.40;;;;;;;;;;5072551;28;20021;-91
2020/12/08 05:03:59;;;;;;;6.82;5.15;;;;;;;;;;5072532;28;20025;-88
2020/12/08 05:06:25;;;;;;;8.15;5.75;;;;;;;;;;5072852;28;20020;-87
2020/12/08 05:09:07;;;;;;;10.10;6.72;;;;;;;;;;5072813;28;20032;-82
2020/12/08 05:11:34;;;;;;;9.27;5.72;;;;;;;;;;5073147;28;20098;-89
2020/12/08 05:14:04;;;;;;;9.80;6.32;;;;;;;;;;5072203;28;20028;-90
2020/12/08 05:16:31;;;;;;;13.25;8.27;;;;;;;;;;5072768;28;20021;-92
2020/12/08 05:19:10;;;;;;;12.60;7.90;;;;;;;;;;5073233;28;20096;-91
2020/12/08 05:21:56;;;;;;;13.45;7.93;;;;;;;;;;5073090;28;20066;-91
2020/12/08 05:24:32;;;;;;;14.30;8.45;;;;;;;;;;5073182;28;20028;-92
2020/12/08 05:27:02;;;;;;;15.07;8.68;;;;;;;;;;5073107;28;20124;-92
2020/12/08 05:29:29;;;;;;;16.02;9.18;;;;;;;;;;5073120;28;20025;-91
2020/12/08 05:31:55;;;;;;;13.55;8.30;;;;;;;;;;5073162;28;20723;-91
2020/12/08 05:34:23;;;;;;;13.70;8.38;;;;;;;;;;5073152;28;20027;-92
2020/12/08 05:36:50;;;;;;;13.65;9.05;;;;;;;;;;5071971;28;20472;-91
2020/12/08 05:39:17;;;;;;;14.27;8.05;;;;;;;;;;5073093;28;20021;-92
2020/12/08 05:41:44;;;;;;;14.68;8.98;;;;;;;;;;5076835;28;20024;-93
2020/12/08 05:44:15;;;;;;;16.55;9.38;;;;;;;;;;5077055;28;20032;-88
2020/12/08 05:46:42;;;;;;;14.73;8.88;;;;;;;;;;5076873;28;20028;-92
2020/12/08 05:49:12;;;;;;;14.40;8.77;;;;;;;;;;5076877;28;20483;-93
2020/12/08 05:51:48;;;;;;;14.07;8.77;;;;;;;;;;5077005;28;20028;-92
2020/12/08 05:54:19;;;;;;;16.23;9.25;;;;;;;;;;5076929;28;20354;-94
2020/12/08 05:56:45;;;;;;;15.90;9.52;;;;;;;;;;5077154;28;20112;-88
2020/12/08 05:59:12;;;;;;;16.92;10.13;;;;;;;;;;5076821;28;20082;-92
2020/12/08 06:01:50;;;;;;;16.75;10.57;;;;;;;;;;5076661;28;20024;-91
2020/12/08 06:04:16;;;;;;;17.35;10.77;;;;;;;;;;5075786;28;20028;-92
2020/12/08 06:06:48;;;;;;;17.92;10.32;;;;;;;;;;5076651;28;20424;-93
2020/12/08 06:09:27;;;;;;;16.55;10.10;;;;;;;;;;5076843;28;20035;-94
2020/12/08 06:11:53;;;;;;;19.08;11.45;;;;;;;;;;5076440;28;20523;-91
2020/12/08 06:14:36;;;;;;;18.10;11.23;;;;;;;;;;5076381;28;20024;-88
2020/12/08 06:17:03;;;;;;;16.55;10.50;;;;;;;;;;5076647;28;20376;-92
2020/12/08 06:19:29;;;;;;;17.63;10.25;;;;;;;;;;5076393;28;20025;-94
2020/12/08 06:21:55;;;;;;;20.67;12.13;;;;;;;;;;5076356;28;20498;-92
2020/12/08 06:24:21;;;;;;;18.45;11.60;;;;;;;;;;5076267;28;20024;-92
2020/12/08 06:26:47;;;;;;;19.65;10.98;;;;;;;;;;5075954;28;20032;-91
2020/12/08 06:29:13;;;;;;;18.75;11.25;;;;;;;;;;5076141;28;20024;-90
2020/12/08 06:31:49;;;;;;;21.00;11.15;;;;;;;;;;5076286;28;20013;-91
2020/12/08 06:34:25;;;;;;;19.58;11.45;;;;;;;;;;5076110;28;20035;-87
2020/12/08 06:36:51;;;;;;;19.42;11.88;;;;;;;;;;5076310;28;20016;-92
2020/12/08 06:39:17;;;;;;;21.98;11.55;;;;;;;;;;5076056;28;20028;-93
2020/12/08 06:41:44;;;;;;;21.50;12.40;;;;;;;;;;5075903;28;20075;-90
2020/12/08 06:44:13;;;;;;;19.00;11.50;;;;;;;;;;5076080;28;20066;-92
2020/12/08 06:46:40;;;;;;;19.05;11.35;;;;;;;;;;5075720;28;20128;-83
2020/12/08 06:49:06;;;;;;;20.35;11.63;;;;;;;;;;5075688;28;20025;-91
2020/12/08 06:51:33;;;;;;;20.00;12.05;;;;;;;;;;5075415;28;20031;-92
2020/12/08 06:53:59;;;;;;;21.98;13.27;;;;;;;;;;5075878;28;20032;-92
2020/12/08 06:56:29;;;;;;;20.30;12.98;;;;;;;;;;5075773;28;20027;-92
2020/12/08 06:58:55;;;;;;;20.73;12.88;;;;;;;;;;5076090;28;20024;-92
2020/12/08 07:01:21;;;;;;;21.55;12.90;;;;;;;;;;5075468;28;20474;-91
2020/12/08 07:03:48;;;;;;;21.33;12.55;;;;;;;;;;5075486;28;20056;-92
2020/12/08 07:06:14;;;;;;;20.55;12.57;;;;;;;;;;5057462;28;20025;-93
2020/12/08 07:08:41;;;;;;;20.58;12.43;;;;;;;;;;5057608;28;20060;-91
2020/12/08 07:11:16;;;;;;;19.38;11.45;;;;;;;;;;5075156;28;20065;-91
2020/12/08 07:13:42;;;;;;;20.60;12.10;;;;;;;;;;5075181;28;20036;-91
2020/12/08 07:16:14;;;;;;;20.50;12.48;;;;;;;;;;5075328;28;20036;-91
2020/12/08 07:18:40;;;;;;;21.80;12.93;;;;;;;;;;5075499;28;20020;-91
2020/12/08 07:21:06;;;;;;;23.35;13.32;;;;;;;;;;5075329;28;20024;-89
2020/12/08 07:23:39;;;;;;;20.30;12.13;;;;;;;;;;5076108;28;20047;-90
2020/12/08 07:26:05;;;;;;;19.92;12.63;;;;;;;;;;5074989;28;20028;-89
2020/12/08 07:28:33;;;;;;;19.90;12.27;;;;;;;;;;5057040;28;20398;-89
2020/12/08 07:30:59;;;;;;;19.88;11.80;;;;;;;;;;5074828;28;20021;-91
2020/12/08 07:33:30;;;;;;;22.25;12.15;;;;;;;;;;5074726;28;20024;-84
2020/12/08 07:35:56;;;;;;;21.88;12.32;;;;;;;;;;5074723;28;20028;-89
2020/12/08 07:38:22;;;;;;;23.67;13.57;;;;;;;;;;5074376;28;20029;-89
2020/12/08 07:40:48;;;;;;;24.50;14.13;;;;;;;;;;5074114;28;20369;-88
2020/12/08 07:43:14;;;;;;;27.80;14.20;;;;;;;;;;5094679;28;20464;-88
2020/12/08 07:45:42;;;;;;;26.23;14.82;;;;;;;;;;5094668;28;20020;-88
2020/12/08 07:48:10;;;;;;;28.27;14.82;;;;;;;;;;5094487;28;20074;-89
2020/12/08 07:50:36;;;;;;;26.23;14.85;;;;;;;;;;5094161;28;20024;-83
2020/12/08 07:53:04;;;;;;;30.38;15.98;;;;;;;;;;5094307;28;20035;-88
2020/12/08 07:55:31;;;;;;;28.70;14.50;;;;;;;;;;5087334;28;20477;-88
2020/12/08 07:57:57;;;;;;;28.23;15.50;;;;;;;;;;5074071;28;20465;-88
2020/12/08 08:00:24;;;;;;;33.85;16.58;;;;;;;;;;5075012;28;20081;-87
2020/12/08 08:02:50;;;;;;;29.25;16.92;;;;;;;;;;5073125;28;20076;-87
2020/12/08 08:05:16;;;;;;;28.80;15.73;;;;;;;;;;5073431;28;20048;-87
2020/12/08 08:07:42;;;;;;;30.00;16.05;;;;;;;;;;5073221;28;20036;-87
2020/12/08 08:10:08;;;;;;;30.80;16.55;;;;;;;;;;5055187;28;20067;-83
2020/12/08 08:12:35;;;;;;;32.80;17.02;;;;;;;;;;5073442;28;20056;-85
2020/12/08 08:15:01;;;;;;;30.50;16.48;;;;;;;;;;5073446;28;20025;-88
2020/12/08 08:17:27;;;;;;;30.60;16.40;;;;;;;;;;5073306;28;20024;-87
2020/12/08 08:19:53;;;;;;;29.40;16.60;;;;;;;;;;5073274;28;20177;-84
2020/12/08 08:22:19;;;;;;;26.65;15.02;;;;;;;;;;5073211;28;20016;-78
2020/12/08 08:24:45;;;;;;;28.38;15.48;;;;;;;;;;5073242;28;20036;-87
2020/12/08 08:27:11;;;;;;;26.10;14.30;;;;;;;;;;5072932;28;20383;-88
2020/12/08 08:29:37;;;;;;;26.35;15.80;;;;;;;;;;5072765;28;20401;-83
2020/12/08 08:32:03;;;;;;;26.55;14.40;;;;;;;;;;5072867;28;20027;-87
2020/12/08 08:34:29;;;;;;;28.48;14.50;;;;;;;;;;5072859;28;20052;-89
2020/12/08 08:36:56;;;;;;;29.17;15.13;;;;;;;;;;5073001;28;20024;-80
2020/12/08 08:39:23;;;;;;;25.50;13.88;;;;;;;;;;5073217;28;20017;-90
2020/12/08 08:41:49;;;;;;;25.52;14.93;;;;;;;;;;5073410;28;20468;-90
2020/12/08 08:44:15;;;;;;;28.27;16.50;;;;;;;;;;5073110;28;20016;-81
2020/12/08 08:46:41;;;;;;;26.83;14.15;;;;;;;;;;5055235;28;20021;-79
2020/12/08 08:49:13;;;;;;;27.40;15.13;;;;;;;;;;5073592;28;20028;-83
2020/12/08 08:51:40;;;;;;;28.08;14.65;;;;;;;;;;5075994;28;20026;-83
2020/12/08 08:54:06;;;;;;;31.25;15.10;;;;;;;;;;5078931;28;20055;-76
2020/12/08 08:56:32;;;;;;;25.48;14.48;;;;;;;;;;5084008;28;20020;-74
2020/12/08 08:58:58;;;;;;;24.23;14.85;;;;;;;;;;5086644;28;20052;-78
2020/12/08 09:01:24;;;;;;;26.08;14.75;;;;;;;;;;5064259;28;20013;-81
2020/12/08 09:03:50;;;;;;;29.73;14.98;;;;;;;;;;5080150;28;20099;-73
2020/12/08 09:06:16;;;;;;;27.85;14.68;;;;;;;;;;5066526;28;20024;-78
2020/12/08 09:08:42;;;;;;;29.13;16.27;;;;;;;;;;5065599;28;20036;-79
2020/12/08 09:11:08;;;;;;;27.10;15.45;;;;;;;;;;5086169;28;20064;-77
2020/12/08 09:13:35;;;;;;;26.35;15.93;;;;;;;;;;5085628;28;20037;-79
2020/12/08 09:16:01;;;;;;;27.05;15.30;;;;;;;;;;5083285;28;20384;-81
2020/12/08 09:18:27;;;;;;;25.73;15.32;;;;;;;;;;5082015;28;20066;-78
2020/12/08 09:20:54;;;;;;;29.02;15.05;;;;;;;;;;5062161;28;20028;-93
2020/12/08 09:23:22;;;;;;;28.27;14.95;;;;;;;;;;5062895;28;20029;-92
2020/12/08 09:25:48;;;;;;;24.80;15.18;;;;;;;;;;5080159;28;20076;-91
2020/12/08 09:28:14;;;;;;;27.52;15.15;;;;;;;;;;5079866;28;20060;-91
2020/12/08 09:30:40;;;;;;;27.98;15.35;;;;;;;;;;5077644;28;20440;-92
2020/12/08 09:33:06;;;;;;;25.65;15.27;;;;;;;;;;5076178;28;20025;-73
2020/12/08 09:35:33;;;;;;;26.02;14.73;;;;;;;;;;5073335;28;20021;-81
2020/12/08 09:37:59;;;;;;;25.95;14.27;;;;;;;;;;5073221;28;20016;-74
2020/12/08 09:40:25;;;;;;;24.55;14.18;;;;;;;;;;5072836;28;20104;-82
2020/12/08 09:42:51;;;;;;;24.20;14.38;;;;;;;;;;5073220;28;20042;-81
2020/12/08 09:45:17;;;;;;;28.35;14.25;;;;;;;;;;5073785;28;20028;-78
2020/12/08 09:47:43;;;;;;;24.17;13.10;;;;;;;;;;5073754;28;20037;-73
2020/12/08 09:50:10;;;;;;;22.23;12.63;;;;;;;;;;5072688;28;20031;-75
2020/12/08 09:52:36;;;;;;;24.27;14.23;;;;;;;;;;5072504;28;20025;-75
2020/12/08 09:55:03;;;;;;;27.83;15.30;;;;;;;;;;5072565;28;20074;-77
2020/12/08 09:57:29;;;;;;;27.20;14.88;;;;;;;;;;5073114;28;20050;-74
2020/12/08 09:59:55;;;;;;;26.83;14.68;;;;;;;;;;5074670;28;20050;-82
2020/12/08 10:02:23;;;;;;;25.05;15.27;;;;;;;;;;5076621;28;20024;-90
2020/12/08 10:04:50;;;;;;;25.83;15.02;;;;;;;;;;5076167;28;20100;-79
2020/12/08 10:07:18;;;;;;;26.50;15.93;;;;;;;;;;5074165;28;20036;-88
2020/12/08 10:09:45;;;;;;;25.48;14.60;;;;;;;;;;5073524;28;20028;-85
2020/12/08 10:12:11;;;;;;;25.45;14.35;;;;;;;;;;5074062;28;20043;-77
2020/12/08 10:14:37;;;;;;;23.65;13.35;;;;;;;;;;5074936;28;20021;-85
2020/12/08 10:17:04;;;;;;;25.95;14.05;;;;;;;;;;5076577;28;20099;-86
2020/12/08 10:19:31;;;;;;;26.75;14.35;;;;;;;;;;5080366;28;20028;-86
2020/12/08 10:21:57;;;;;;;24.77;14.52;;;;;;;;;;5080083;28;20032;-76
2020/12/08 10:24:23;;;;;;;28.60;15.85;;;;;;;;;;5081905;28;20082;-76
2020/12/08 10:26:49;;;;;;;24.08;14.02;;;;;;;;;;5086251;28;20082;-81
2020/12/08 10:29:15;;;;;;;26.05;13.93;;;;;;;;;;5094141;28;20035;-92
2020/12/08 10:31:41;;;;;;;23.70;13.50;;;;;;;;;;5098422;28;20025;-87
2020/12/08 10:34:08;;;;;;;24.27;13.13;;;;;;;;;;5097656;28;20028;-92
2020/12/08 10:36:34;;;;;;;25.00;13.88;;;;;;;;;;5095042;28;20027;-79
2020/12/08 10:39:00;;;;;;;24.33;13.52;;;;;;;;;;5091049;28;20025;-93
2020/12/08 10:41:28;;;;;;;24.48;13.50;;;;;;;;;;5065431;28;20433;-75
2020/12/08 10:43:54;;;;;;;23.15;12.77;;;;;;;;;;5081215;28;20021;-75
2020/12/08 10:46:20;;;;;;;24.40;13.90;;;;;;;;;;5060224;28;20025;-75
2020/12/08 10:48:46;;;;;;;26.02;13.73;;;;;;;;;;5078195;28;20032;-81
2020/12/08 10:51:12;;;;;;;25.23;13.77;;;;;;;;;;5079662;28;20020;-75
2020/12/08 10:53:38;;;;;;;23.23;12.95;;;;;;;;;;5061201;28;20059;-79
2020/12/08 10:56:04;;;;;;;25.42;13.13;;;;;;;;;;5076673;28;20418;-83
2020/12/08 10:58:30;;;;;;;23.90;13.32;;;;;;;;;;5076562;28;20031;-81
2020/12/08 11:00:57;;;;;;;26.33;14.85;;;;;;;;;;5075277;28;20029;-82
2020/12/08 11:03:23;;;;;;;26.60;14.48;;;;;;;;;;5057486;28;20388;-81
2020/12/08 11:05:49;;;;;;;27.48;14.48;;;;;;;;;;5057350;28;20380;-78
2020/12/08 11:08:16;;;;;;;23.17;13.82;;;;;;;;;;5075217;28;20051;-86
2020/12/08 11:10:42;;;;;;;22.88;12.95;;;;;;;;;;5075371;28;20047;-87
2020/12/08 11:13:08;;;;;;;22.85;13.35;;;;;;;;;;5075340;28;20020;-91
2020/12/08 11:15:34;;;;;;;20.83;12.85;;;;;;;;;;5075487;28;20017;-85
2020/12/08 11:18:00;;;;;;;23.48;12.48;;;;;;;;;;5075922;28;20017;-92
2020/12/08 11:20:26;;;;;;;20.55;13.15;;;;;;;;;;5075509;28;20025;-93
2020/12/08 11:22:52;;;;;;;20.75;12.50;;;;;;;;;;5075519;28;20024;-87
2020/12/08 11:25:18;;;;;;;22.23;12.57;;;;;;;;;;5075291;28;20186;-92
2020/12/08 11:27:44;;;;;;;23.50;13.25;;;;;;;;;;5074953;28;20090;-92
2020/12/08 11:30:10;;;;;;;25.05;13.57;;;;;;;;;;5075074;28;20017;-79
2020/12/08 11:32:36;;;;;;;21.58;11.73;;;;;;;;;;5074840;28;20036;-79
2020/12/08 11:35:02;;;;;;;24.33;12.77;;;;;;;;;;5074886;28;20025;-83
2020/12/08 11:37:29;;;;;;;22.40;13.25;;;;;;;;;;5074267;28;20024;-81
2020/12/08 11:39:55;;;;;;;24.67;12.98;;;;;;;;;;5074637;28;20080;-84
2020/12/08 11:42:21;;;;;;;24.77;12.23;;;;;;;;;;5074820;28;20081;-89
2020/12/08 11:44:47;;;;;;;24.50;13.13;;;;;;;;;;5075219;28;20033;-91
2020/12/08 11:47:13;;;;;;;23.98;13.20;;;;;;;;;;5094912;28;20115;-86
2020/12/08 11:49:40;;;;;;;26.23;14.15;;;;;;;;;;5094876;28;20468;-88
2020/12/08 11:52:09;;;;;;;30.15;15.82;;;;;;;;;;5094861;28;20059;-85
2020/12/08 11:54:36;;;;;;;27.25;13.80;;;;;;;;;;5094862;28;20024;-89
2020/12/08 11:57:02;;;;;;;20.63;12.40;;;;;;;;;;5057072;28;20025;-89
2020/12/08 11:59:28;;;;;;;20.67;12.05;;;;;;;;;;5056905;28;20024;-89
2020/12/08 12:01:54;;;;;;;23.70;12.77;;;;;;;;;;5074389;28;20464;-90
2020/12/08 12:04:20;;;;;;;20.08;11.95;;;;;;;;;;5074424;28;20021;-84
2020/12/08 12:06:47;;;;;;;23.77;11.65;;;;;;;;;;5056339;28;20025;-85
2020/12/08 12:09:13;;;;;;;21.08;12.73;;;;;;;;;;5074427;28;20464;-88
2020/12/08 12:11:39;;;;;;;23.73;12.50;;;;;;;;;;5074287;28;20508;-91
2020/12/08 12:14:05;;;;;;;21.65;12.15;;;;;;;;;;5074160;28;20074;-79
2020/12/08 12:16:32;;;;;;;22.75;12.77;;;;;;;;;;5074017;28;20034;-82
2020/12/08 12:18:58;;;;;;;20.00;12.20;;;;;;;;;;5073467;28;20021;-76
2020/12/08 12:21:24;;;;;;;19.02;11.80;;;;;;;;;;5073666;28;20047;-76
2020/12/08 12:23:50;;;;;;;21.83;11.27;;;;;;;;;;5073608;28;20048;-82
2020/12/08 12:26:16;;;;;;;20.88;12.05;;;;;;;;;;5073622;28;20029;-90
2020/12/08 12:28:42;;;;;;;21.30;11.40;;;;;;;;;;5074020;28;20052;-87
2020/12/08 12:31:08;;;;;;;22.40;10.63;;;;;;;;;;5073669;28;20021;-81
2020/12/08 12:33:35;;;;;;;18.52;10.85;;;;;;;;;;5073278;28;20028;-77
2020/12/08 12:36:01;;;;;;;19.27;10.98;;;;;;;;;;5073811;28;20027;-87
2020/12/08 12:38:27;;;;;;;19.00;10.88;;;;;;;;;;5073556;28;20020;-88
2020/12/08 12:40:53;;;;;;;19.00;11.02;;;;;;;;;;5073472;28;20016;-84
2020/12/08 12:43:19;;;;;;;19.92;11.35;;;;;;;;;;5073433;28;20031;-84
2020/12/08 12:45:45;;;;;;;20.13;10.90;;;;;;;;;;5073365;28;20103;-81
2020/12/08 12:48:11;;;;;;;18.20;10.60;;;;;;;;;;5073180;28;20036;-80
2020/12/08 12:50:39;;;;;;;18.90;11.45;;;;;;;;;;5072317;28;20095;-88
2020/12/08 12:53:05;;;;;;;21.55;10.95;;;;;;;;;;5073306;28;20044;-88
2020/12/08 12:55:31;;;;;;;17.50;10.52;;;;;;;;;;5073659;28;20024;-90
2020/12/08 12:57:57;;;;;;;20.88;10.30;;;;;;;;;;5073412;28;20028;-80
2020/12/08 13:00:23;;;;;;;17.48;10.43;;;;;;;;;;5073417;28;20013;-88
2020/12/08 13:02:50;;;;;;;21.27;11.60;;;;;;;;;;5073333;28;20025;-89
2020/12/08 13:05:16;;;;;;;20.90;11.15;;;;;;;;;;5073687;28;20107;-81
2020/12/08 13:07:42;;;;;;;26.13;12.15;;;;;;;;;;5073023;28;20041;-83
2020/12/08 13:10:08;;;;;;;22.23;11.60;;;;;;;;;;5073248;28;20041;-81
2020/12/08 13:12:34;;;;;;;28.60;12.90;;;;;;;;;;5073245;28;20484;-88
2020/12/08 13:15:00;;;;;;;20.52;11.32;;;;;;;;;;5073516;28;20046;-93
2020/12/08 13:17:26;;;;;;;22.23;10.60;;;;;;;;;;5073238;28;20031;-91
2020/12/08 13:19:52;;;;;;;17.92;10.82;;;;;;;;;;5073311;28;20028;-90
2020/12/08 13:22:18;;;;;;;17.90;11.07;;;;;;;;;;5073261;28;20020;-91
2020/12/08 13:24:44;;;;;;;18.63;10.15;;;;;;;;;;5073228;28;20021;-89
2020/12/08 13:27:10;;;;;;;19.45;10.43;;;;;;;;;;5073250;28;20025;-92
2020/12/08 13:29:36;;;;;;;20.05;10.63;;;;;;;;;;5073463;28;20032;-90
2020/12/08 13:32:02;;;;;;;18.42;10.10;;;;;;;;;;5073466;28;20027;-91
2020/12/08 13:34:28;;;;;;;17.58;10.25;;;;;;;;;;5073308;28;20081;-90
2020/12/08 13:36:54;;;;;;;20.17;11.57;;;;;;;;;;5073080;28;20021;-91
2020/12/08 13:39:21;;;;;;;19.15;10.32;;;;;;;;;;5072961;28;20027;-90
2020/12/08 13:41:47;;;;;;;15.40;9.70;;;;;;;;;;5073124;28;20027;-90
2020/12/08 13:44:14;;;;;;;18.45;9.85;;;;;;;;;;5072952;28;20028;-83
2020/12/08 13:46:40;;;;;;;17.48;9.98;;;;;;;;;;5072815;28;20024;-92
2020/12/08 13:49:06;;;;;;;18.17;9.60;;;;;;;;;;5072923;28;20024;-92
2020/12/08 13:51:32;;;;;;;19.83;10.27;;;;;;;;;;5073027;28;20025;-90
2020/12/08 13:53:58;;;;;;;20.25;10.48;;;;;;;;;;5072911;28;20024;-90
2020/12/08 13:56:24;;;;;;;16.75;9.77;;;;;;;;;;5072970;28;20023;-83
2020/12/08 13:58:51;;;;;;;18.58;9.50;;;;;;;;;;5073114;28;20012;-89
2020/12/08 14:01:21;;;;;;;17.75;9.23;;;;;;;;;;5073842;28;20025;-90
2020/12/08 14:03:47;;;;;;;16.73;9.82;;;;;;;;;;5076735;28;20047;-90
2020/12/08 14:06:13;;;;;;;17.48;9.23;;;;;;;;;;5058771;28;20185;-89
2020/12/08 14:08:39;;;;;;;15.80;10.00;;;;;;;;;;5077002;28;20029;-90
2020/12/08 14:11:06;;;;;;;17.70;9.60;;;;;;;;;;5076137;28;20048;-82
2020/12/08 14:13:32;;;;;;;15.85;9.48;;;;;;;;;;5076654;28;20021;-91
2020/12/08 14:15:58;;;;;;;19.63;9.75;;;;;;;;;;5076775;28;20408;-91
2020/12/08 14:18:24;;;;;;;16.35;8.68;;;;;;;;;;5076587;28;20498;-92
2020/12/08 14:20:52;;;;;;;17.52;9.43;;;;;;;;;;5076267;28;20073;-91
2020/12/08 14:23:18;;;;;;;19.00;10.68;;;;;;;;;;5076309;28;20032;-88